sensor_id;sensor_type;location;lat;lon;timestamp;temperature;humidity
35523;DHT22;61478;50.820;4.330;2023-02-01T00:02:12;7.30;99.90
35523;DHT22;61478;50.820;4.330;2023-02-01T00:04:38;7.30;99.90
35523;DHT22;61478;50.820;4.330;2023-02-01T00:07:04;7.20;99.90
35523;DHT22;61478;50.820;4.330;2023-02-01T00:09:30;7.30;99.90
35523;DHT22;61478;50.820;4.330;2023-02-01T00:11:56;7.30;99.90
35523;DHT22;61478;50.820;4.330;2023-02-01T00:14:27;7.30;99.90
35523;DHT22;61478;50.820;4.330;2023-02-01T00:16:53;7.30;99.90
35523;DHT22;61478;50.820;4.330;2023-02-01T00:19:19;7.30;99.90
35523;DHT22;61478;50.820;4.330;2023-02-01T00:21:46;7.30;99.90
35523;DHT22;61478;50.820;4.330;2023-02-01T00:24:12;7.20;99.90
35523;DHT22;61478;50.820;4.330;2023-02-01T00:26:42;7.20;99.90
35523;DHT22;61478;50.820;4.330;2023-02-01T00:29:14;7.20;99.90
35523;DHT22;61478;50.820;4.330;2023-02-01T00:31:41;7.20;99.90
35523;DHT22;61478;50.820;4.330;2023-02-01T00:34:07;7.30;99.90
35523;DHT22;61478;50.820;4.330;2023-02-01T00:36:34;7.20;99.90
35523;DHT22;61478;50.820;4.330;2023-02-01T00:39:00;7.30;99.90
35523;DHT22;61478;50.820;4.330;2023-02-01T00:41:26;7.30;99.90
35523;DHT22;61478;50.820;4.330;2023-02-01T00:43:52;7.30;99.90
35523;DHT22;61478;50.820;4.330;2023-02-01T00:46:19;7.30;99.90
35523;DHT22;61478;50.820;4.330;2023-02-01T00:48:45;7.20;99.90
35523;DHT22;61478;50.820;4.330;2023-02-01T00:51:14;7.20;99.90
35523;DHT22;61478;50.820;4.330;2023-02-01T00:53:41;7.30;99.90
35523;DHT22;61478;50.820;4.330;2023-02-01T00:56:07;7.20;99.90
35523;DHT22;61478;50.820;4.330;2023-02-01T00:58:34;7.20;99.90
35523;DHT22;61478;50.820;4.330;2023-02-01T01:01:09;7.20;99.90
35523;DHT22;61478;50.820;4.330;2023-02-01T01:03:38;7.20;99.90
35523;DHT22;61478;50.820;4.330;2023-02-01T01:06:06;7.20;99.90
35523;DHT22;61478;50.820;4.330;2023-02-01T01:08:33;7.20;99.90
35523;DHT22;61478;50.820;4.330;2023-02-01T01:11:03;7.20;99.90
35523;DHT22;61478;50.820;4.330;2023-02-01T01:13:29;7.20;99.90
35523;DHT22;61478;50.820;4.330;2023-02-01T01:15:55;7.10;99.90
35523;DHT22;61478;50.820;4.330;2023-02-01T01:18:27;7.20;99.90
35523;DHT22;61478;50.820;4.330;2023-02-01T01:20:52;7.20;99.90
35523;DHT22;61478;50.820;4.330;2023-02-01T01:23:19;7.10;99.90
35523;DHT22;61478;50.820;4.330;2023-02-01T01:25:45;7.20;99.90
35523;DHT22;61478;50.820;4.330;2023-02-01T01:28:11;7.20;99.90
35523;DHT22;61478;50.820;4.330;2023-02-01T01:30:36;7.20;99.90
35523;DHT22;61478;50.820;4.330;2023-02-01T01:33:02;7.30;99.90
35523;DHT22;61478;50.820;4.330;2023-02-01T01:35:30;7.20;99.90
35523;DHT22;61478;50.820;4.330;2023-02-01T01:37:57;7.20;99.90
35523;DHT22;61478;50.820;4.330;2023-02-01T01:40:26;7.20;99.90
35523;DHT22;61478;50.820;4.330;2023-02-01T01:42:56;7.20;99.90
35523;DHT22;61478;50.820;4.330;2023-02-01T01:45:32;7.20;99.90
35523;DHT22;61478;50.820;4.330;2023-02-01T01:48:04;7.30;99.90
35523;DHT22;61478;50.820;4.330;2023-02-01T01:50:57;7.30;99.90
35523;DHT22;61478;50.820;4.330;2023-02-01T01:53:28;7.30;99.90
35523;DHT22;61478;50.820;4.330;2023-02-01T01:55:57;7.30;99.90
35523;DHT22;61478;50.820;4.330;2023-02-01T01:58:26;7.30;99.90
35523;DHT22;61478;50.820;4.330;2023-02-01T02:00:54;7.30;99.90
35523;DHT22;61478;50.820;4.330;2023-02-01T02:05:57;7.30;99.90
35523;DHT22;61478;50.820;4.330;2023-02-01T02:08:25;7.30;99.90
35523;DHT22;61478;50.820;4.330;2023-02-01T02:10:52;7.30;99.90
35523;DHT22;61478;50.820;4.330;2023-02-01T02:43:46;7.40;99.90
35523;DHT22;61478;50.820;4.330;2023-02-01T02:46:40;7.30;99.90
35523;DHT22;61478;50.820;4.330;2023-02-01T02:49:35;7.30;99.90
35523;DHT22;61478;50.820;4.330;2023-02-01T02:52:08;7.30;99.90
35523;DHT22;61478;50.820;4.330;2023-02-01T02:54:54;7.30;99.90
35523;DHT22;61478;50.820;4.330;2023-02-01T02:57:28;7.30;99.90
35523;DHT22;61478;50.820;4.330;2023-02-01T03:00:21;7.30;99.90
35523;DHT22;61478;50.820;4.330;2023-02-01T03:03:07;7.20;99.90
35523;DHT22;61478;50.820;4.330;2023-02-01T03:05:52;7.20;99.90
35523;DHT22;61478;50.820;4.330;2023-02-01T03:08:23;7.10;99.90
35523;DHT22;61478;50.820;4.330;2023-02-01T03:13:55;7.10;99.90
35523;DHT22;61478;50.820;4.330;2023-02-01T03:22:09;7.10;99.90
35523;DHT22;61478;50.820;4.330;2023-02-01T03:24:33;7.00;99.90
35523;DHT22;61478;50.820;4.330;2023-02-01T03:27:30;7.00;99.90
35523;DHT22;61478;50.820;4.330;2023-02-01T03:32:44;6.90;99.90
35523;DHT22;61478;50.820;4.330;2023-02-01T03:41:24;6.80;99.90
35523;DHT22;61478;50.820;4.330;2023-02-01T03:47:20;6.70;99.90
35523;DHT22;61478;50.820;4.330;2023-02-01T03:49:55;6.80;99.90
35523;DHT22;61478;50.820;4.330;2023-02-01T03:52:38;6.80;99.90
35523;DHT22;61478;50.820;4.330;2023-02-01T03:55:05;6.80;99.90
35523;DHT22;61478;50.820;4.330;2023-02-01T03:57:38;6.70;99.90
35523;DHT22;61478;50.820;4.330;2023-02-01T04:00:14;6.70;99.90
35523;DHT22;61478;50.820;4.330;2023-02-01T04:02:40;6.60;99.90
35523;DHT22;61478;50.820;4.330;2023-02-01T04:05:07;6.60;99.90
35523;DHT22;61478;50.820;4.330;2023-02-01T04:07:33;6.60;99.90
35523;DHT22;61478;50.820;4.330;2023-02-01T04:09:58;6.60;99.90
35523;DHT22;61478;50.820;4.330;2023-02-01T04:12:24;6.60;99.90
35523;DHT22;61478;50.820;4.330;2023-02-01T04:14:51;6.60;99.90
35523;DHT22;61478;50.820;4.330;2023-02-01T04:17:21;6.60;99.90
35523;DHT22;61478;50.820;4.330;2023-02-01T04:19:49;6.50;99.90
35523;DHT22;61478;50.820;4.330;2023-02-01T04:22:19;6.50;99.90
35523;DHT22;61478;50.820;4.330;2023-02-01T04:24:44;6.40;99.90
35523;DHT22;61478;50.820;4.330;2023-02-01T04:27:11;6.30;99.90
35523;DHT22;61478;50.820;4.330;2023-02-01T04:29:38;6.30;99.90
35523;DHT22;61478;50.820;4.330;2023-02-01T04:32:04;6.30;99.90
35523;DHT22;61478;50.820;4.330;2023-02-01T04:34:31;6.30;99.90
35523;DHT22;61478;50.820;4.330;2023-02-01T04:37:02;6.30;99.90
35523;DHT22;61478;50.820;4.330;2023-02-01T04:39:28;6.30;99.90
35523;DHT22;61478;50.820;4.330;2023-02-01T04:41:54;6.20;99.90
35523;DHT22;61478;50.820;4.330;2023-02-01T04:44:22;6.20;99.90
35523;DHT22;61478;50.820;4.330;2023-02-01T04:46:48;6.10;99.90
35523;DHT22;61478;50.820;4.330;2023-02-01T04:49:14;6.10;99.90
35523;DHT22;61478;50.820;4.330;2023-02-01T04:51:41;6.10;99.90
35523;DHT22;61478;50.820;4.330;2023-02-01T04:54:07;6.10;99.90
35523;DHT22;61478;50.820;4.330;2023-02-01T04:56:34;6.00;99.90
35523;DHT22;61478;50.820;4.330;2023-02-01T04:59:00;6.00;99.90
35523;DHT22;61478;50.820;4.330;2023-02-01T05:01:28;5.90;99.90
35523;DHT22;61478;50.820;4.330;2023-02-01T05:03:54;5.90;99.90
35523;DHT22;61478;50.820;4.330;2023-02-01T05:06:21;5.80;99.90
35523;DHT22;61478;50.820;4.330;2023-02-01T05:08:47;5.80;99.90
35523;DHT22;61478;50.820;4.330;2023-02-01T05:11:13;5.80;99.90
35523;DHT22;61478;50.820;4.330;2023-02-01T05:13:58;5.80;99.90
35523;DHT22;61478;50.820;4.330;2023-02-01T05:16:25;5.70;99.90
35523;DHT22;61478;50.820;4.330;2023-02-01T05:18:52;5.80;99.90
35523;DHT22;61478;50.820;4.330;2023-02-01T05:21:20;5.80;99.90
35523;DHT22;61478;50.820;4.330;2023-02-01T05:23:50;5.70;99.90
35523;DHT22;61478;50.820;4.330;2023-02-01T05:26:35;5.70;99.90
35523;DHT22;61478;50.820;4.330;2023-02-01T05:29:01;5.60;99.90
35523;DHT22;61478;50.820;4.330;2023-02-01T05:31:27;5.60;99.90
35523;DHT22;61478;50.820;4.330;2023-02-01T05:33:54;5.50;99.90
35523;DHT22;61478;50.820;4.330;2023-02-01T05:36:20;5.50;99.90
35523;DHT22;61478;50.820;4.330;2023-02-01T05:38:46;5.40;99.90
35523;DHT22;61478;50.820;4.330;2023-02-01T05:41:15;5.40;99.90
35523;DHT22;61478;50.820;4.330;2023-02-01T05:43:41;5.40;99.90
35523;DHT22;61478;50.820;4.330;2023-02-01T05:46:09;5.50;99.90
35523;DHT22;61478;50.820;4.330;2023-02-01T05:48:39;5.50;99.90
35523;DHT22;61478;50.820;4.330;2023-02-01T05:51:05;5.50;99.90
35523;DHT22;61478;50.820;4.330;2023-02-01T05:53:31;5.50;99.90
35523;DHT22;61478;50.820;4.330;2023-02-01T05:55:59;5.40;99.90
35523;DHT22;61478;50.820;4.330;2023-02-01T05:58:25;5.40;99.90
35523;DHT22;61478;50.820;4.330;2023-02-01T06:01:01;5.40;99.90
35523;DHT22;61478;50.820;4.330;2023-02-01T06:03:27;5.30;99.90
35523;DHT22;61478;50.820;4.330;2023-02-01T06:05:53;5.30;99.90
35523;DHT22;61478;50.820;4.330;2023-02-01T06:08:19;5.30;99.90
35523;DHT22;61478;50.820;4.330;2023-02-01T06:10:45;5.30;99.90
35523;DHT22;61478;50.820;4.330;2023-02-01T06:13:11;5.30;99.90
35523;DHT22;61478;50.820;4.330;2023-02-01T06:15:37;5.30;99.90
35523;DHT22;61478;50.820;4.330;2023-02-01T06:18:04;5.30;99.90
35523;DHT22;61478;50.820;4.330;2023-02-01T06:20:32;5.30;99.90
35523;DHT22;61478;50.820;4.330;2023-02-01T06:22:58;5.20;99.90
35523;DHT22;61478;50.820;4.330;2023-02-01T06:25:24;5.20;99.90
35523;DHT22;61478;50.820;4.330;2023-02-01T06:27:50;5.20;99.90
35523;DHT22;61478;50.820;4.330;2023-02-01T06:30:16;5.20;99.90
35523;DHT22;61478;50.820;4.330;2023-02-01T06:32:42;5.20;99.90
35523;DHT22;61478;50.820;4.330;2023-02-01T06:35:09;5.20;99.90
35523;DHT22;61478;50.820;4.330;2023-02-01T06:37:42;5.20;99.90
35523;DHT22;61478;50.820;4.330;2023-02-01T06:40:12;5.20;99.90
35523;DHT22;61478;50.820;4.330;2023-02-01T06:42:41;5.20;99.90
35523;DHT22;61478;50.820;4.330;2023-02-01T06:45:07;5.30;99.90
35523;DHT22;61478;50.820;4.330;2023-02-01T06:47:33;5.20;99.90
35523;DHT22;61478;50.820;4.330;2023-02-01T06:49:59;5.20;99.90
35523;DHT22;61478;50.820;4.330;2023-02-01T06:52:25;5.30;99.90
35523;DHT22;61478;50.820;4.330;2023-02-01T06:54:51;5.30;99.90
35523;DHT22;61478;50.820;4.330;2023-02-01T06:57:17;5.30;99.90
35523;DHT22;61478;50.820;4.330;2023-02-01T06:59:43;5.20;99.90
35523;DHT22;61478;50.820;4.330;2023-02-01T07:02:12;5.30;99.90
35523;DHT22;61478;50.820;4.330;2023-02-01T07:04:37;5.20;99.90
35523;DHT22;61478;50.820;4.330;2023-02-01T07:07:03;5.20;99.90
35523;DHT22;61478;50.820;4.330;2023-02-01T07:09:29;5.10;99.90
35523;DHT22;61478;50.820;4.330;2023-02-01T07:11:55;5.10;99.90
35523;DHT22;61478;50.820;4.330;2023-02-01T07:14:21;5.10;99.90
35523;DHT22;61478;50.820;4.330;2023-02-01T07:16:47;5.10;99.90
35523;DHT22;61478;50.820;4.330;2023-02-01T07:19:12;5.10;99.90
35523;DHT22;61478;50.820;4.330;2023-02-01T07:21:38;5.10;99.90
35523;DHT22;61478;50.820;4.330;2023-02-01T07:24:04;5.10;99.90
35523;DHT22;61478;50.820;4.330;2023-02-01T07:26:30;5.10;99.90
35523;DHT22;61478;50.820;4.330;2023-02-01T07:28:56;5.10;99.90
35523;DHT22;61478;50.820;4.330;2023-02-01T07:31:22;5.10;99.90
35523;DHT22;61478;50.820;4.330;2023-02-01T07:33:49;5.10;99.90
35523;DHT22;61478;50.820;4.330;2023-02-01T07:36:18;5.20;99.90
35523;DHT22;61478;50.820;4.330;2023-02-01T07:38:44;5.20;99.90
35523;DHT22;61478;50.820;4.330;2023-02-01T07:41:12;5.20;99.90
35523;DHT22;61478;50.820;4.330;2023-02-01T07:43:38;5.20;99.90
35523;DHT22;61478;50.820;4.330;2023-02-01T07:46:04;5.20;99.90
35523;DHT22;61478;50.820;4.330;2023-02-01T07:48:31;5.20;99.90
35523;DHT22;61478;50.820;4.330;2023-02-01T07:53:29;5.10;99.90
35523;DHT22;61478;50.820;4.330;2023-02-01T07:55:56;5.10;99.90
35523;DHT22;61478;50.820;4.330;2023-02-01T07:58:25;5.10;99.90
35523;DHT22;61478;50.820;4.330;2023-02-01T08:00:52;5.10;99.90
35523;DHT22;61478;50.820;4.330;2023-02-01T08:03:37;5.10;99.90
35523;DHT22;61478;50.820;4.330;2023-02-01T08:06:03;5.20;99.90
35523;DHT22;61478;50.820;4.330;2023-02-01T08:08:35;5.20;99.90
35523;DHT22;61478;50.820;4.330;2023-02-01T08:11:03;5.20;99.90
35523;DHT22;61478;50.820;4.330;2023-02-01T08:13:29;5.30;99.90
35523;DHT22;61478;50.820;4.330;2023-02-01T08:16:02;5.30;99.90
35523;DHT22;61478;50.820;4.330;2023-02-01T08:18:29;5.30;99.90
35523;DHT22;61478;50.820;4.330;2023-02-01T08:21:02;5.30;99.90
35523;DHT22;61478;50.820;4.330;2023-02-01T08:23:35;5.30;99.90
35523;DHT22;61478;50.820;4.330;2023-02-01T08:26:16;5.30;99.90
35523;DHT22;61478;50.820;4.330;2023-02-01T08:28:49;5.40;99.90
35523;DHT22;61478;50.820;4.330;2023-02-01T08:31:17;5.40;99.90
35523;DHT22;61478;50.820;4.330;2023-02-01T08:33:47;5.40;99.90
35523;DHT22;61478;50.820;4.330;2023-02-01T08:36:13;5.40;99.90
35523;DHT22;61478;50.820;4.330;2023-02-01T08:38:39;5.40;99.90
35523;DHT22;61478;50.820;4.330;2023-02-01T08:41:15;5.40;99.90
35523;DHT22;61478;50.820;4.330;2023-02-01T08:43:51;5.50;99.90
35523;DHT22;61478;50.820;4.330;2023-02-01T08:46:20;5.50;99.90
35523;DHT22;61478;50.820;4.330;2023-02-01T08:48:50;5.60;99.90
35523;DHT22;61478;50.820;4.330;2023-02-01T08:51:18;5.60;99.90
35523;DHT22;61478;50.820;4.330;2023-02-01T08:53:44;5.70;99.90
35523;DHT22;61478;50.820;4.330;2023-02-01T08:56:11;5.70;99.90
35523;DHT22;61478;50.820;4.330;2023-02-01T08:58:38;5.80;99.90
35523;DHT22;61478;50.820;4.330;2023-02-01T09:01:09;5.80;99.90
35523;DHT22;61478;50.820;4.330;2023-02-01T09:03:35;5.80;99.90
35523;DHT22;61478;50.820;4.330;2023-02-01T09:06:02;5.90;99.90
35523;DHT22;61478;50.820;4.330;2023-02-01T09:08:29;5.90;99.90
35523;DHT22;61478;50.820;4.330;2023-02-01T09:11:02;6.00;99.90
35523;DHT22;61478;50.820;4.330;2023-02-01T09:13:28;6.00;99.90
35523;DHT22;61478;50.820;4.330;2023-02-01T09:15:55;6.00;99.90
35523;DHT22;61478;50.820;4.330;2023-02-01T09:18:21;6.10;99.90
35523;DHT22;61478;50.820;4.330;2023-02-01T09:20:47;6.10;99.90
35523;DHT22;61478;50.820;4.330;2023-02-01T09:23:13;6.10;99.90
35523;DHT22;61478;50.820;4.330;2023-02-01T09:25:39;6.20;99.90
35523;DHT22;61478;50.820;4.330;2023-02-01T09:28:06;6.20;99.90
35523;DHT22;61478;50.820;4.330;2023-02-01T09:30:33;6.30;99.90
35523;DHT22;61478;50.820;4.330;2023-02-01T09:33:01;6.50;99.90
35523;DHT22;61478;50.820;4.330;2023-02-01T09:35:27;6.50;99.90
35523;DHT22;61478;50.820;4.330;2023-02-01T09:37:53;6.50;99.90
35523;DHT22;61478;50.820;4.330;2023-02-01T09:40:20;6.60;99.90
35523;DHT22;61478;50.820;4.330;2023-02-01T09:45:59;6.70;99.90
35523;DHT22;61478;50.820;4.330;2023-02-01T09:48:32;6.80;99.90
35523;DHT22;61478;50.820;4.330;2023-02-01T09:51:03;6.90;99.90
35523;DHT22;61478;50.820;4.330;2023-02-01T09:53:43;7.20;99.90
35523;DHT22;61478;50.820;4.330;2023-02-01T09:56:21;7.50;99.90
35523;DHT22;61478;50.820;4.330;2023-02-01T09:59:05;7.60;99.90
35523;DHT22;61478;50.820;4.330;2023-02-01T10:01:36;7.50;99.90
35523;DHT22;61478;50.820;4.330;2023-02-01T10:04:07;7.40;99.90
35523;DHT22;61478;50.820;4.330;2023-02-01T10:12:48;7.60;99.90
35523;DHT22;61478;50.820;4.330;2023-02-01T10:15:24;7.80;99.90
35523;DHT22;61478;50.820;4.330;2023-02-01T10:18:24;7.80;99.90
35523;DHT22;61478;50.820;4.330;2023-02-01T10:21:16;8.00;99.90
35523;DHT22;61478;50.820;4.330;2023-02-01T10:24:02;8.20;99.90
35523;DHT22;61478;50.820;4.330;2023-02-01T10:26:37;8.20;99.90
35523;DHT22;61478;50.820;4.330;2023-02-01T10:29:04;8.20;99.90
35523;DHT22;61478;50.820;4.330;2023-02-01T10:31:37;8.10;99.90
35523;DHT22;61478;50.820;4.330;2023-02-01T10:34:26;8.20;99.90
35523;DHT22;61478;50.820;4.330;2023-02-01T10:36:57;8.30;99.90
35523;DHT22;61478;50.820;4.330;2023-02-01T10:39:25;8.30;99.90
35523;DHT22;61478;50.820;4.330;2023-02-01T10:41:52;8.30;99.90
35523;DHT22;61478;50.820;4.330;2023-02-01T10:44:25;8.40;99.90
35523;DHT22;61478;50.820;4.330;2023-02-01T10:46:52;8.50;99.90
35523;DHT22;61478;50.820;4.330;2023-02-01T10:49:22;8.50;99.90
35523;DHT22;61478;50.820;4.330;2023-02-01T10:52:01;8.70;99.90
35523;DHT22;61478;50.820;4.330;2023-02-01T10:54:37;8.90;99.90
35523;DHT22;61478;50.820;4.330;2023-02-01T10:57:20;9.00;99.90
35523;DHT22;61478;50.820;4.330;2023-02-01T10:59:46;9.00;99.90
35523;DHT22;61478;50.820;4.330;2023-02-01T11:02:32;9.10;99.90
35523;DHT22;61478;50.820;4.330;2023-02-01T11:05:08;9.30;99.90
35523;DHT22;61478;50.820;4.330;2023-02-01T11:07:36;9.40;99.90
35523;DHT22;61478;50.820;4.330;2023-02-01T11:10:06;9.30;99.90
35523;DHT22;61478;50.820;4.330;2023-02-01T11:12:37;9.30;99.90
35523;DHT22;61478;50.820;4.330;2023-02-01T11:15:23;9.30;99.90
35523;DHT22;61478;50.820;4.330;2023-02-01T11:17:51;9.20;99.90
35523;DHT22;61478;50.820;4.330;2023-02-01T11:22:59;9.30;99.90
35523;DHT22;61478;50.820;4.330;2023-02-01T11:25:25;9.30;99.90
35523;DHT22;61478;50.820;4.330;2023-02-01T11:27:54;9.50;99.90
35523;DHT22;61478;50.820;4.330;2023-02-01T11:30:34;9.60;99.90
35523;DHT22;61478;50.820;4.330;2023-02-01T11:33:04;9.60;99.90
35523;DHT22;61478;50.820;4.330;2023-02-01T11:35:31;9.60;99.90
35523;DHT22;61478;50.820;4.330;2023-02-01T11:37:59;9.70;99.90
35523;DHT22;61478;50.820;4.330;2023-02-01T11:40:29;9.70;99.90
35523;DHT22;61478;50.820;4.330;2023-02-01T11:43:25;9.70;99.90
35523;DHT22;61478;50.820;4.330;2023-02-01T11:45:59;9.70;99.90
35523;DHT22;61478;50.820;4.330;2023-02-01T11:48:28;9.70;99.90
35523;DHT22;61478;50.820;4.330;2023-02-01T11:54:11;9.60;99.90
35523;DHT22;61478;50.820;4.330;2023-02-01T11:56:58;9.60;99.90
35523;DHT22;61478;50.820;4.330;2023-02-01T12:02:51;9.60;99.90
35523;DHT22;61478;50.820;4.330;2023-02-01T12:05:31;9.80;99.90
35523;DHT22;61478;50.820;4.330;2023-02-01T12:08:25;9.80;99.90
35523;DHT22;61478;50.820;4.330;2023-02-01T12:13:46;10.20;99.90
35523;DHT22;61478;50.820;4.330;2023-02-01T12:16:36;10.40;99.90
35523;DHT22;61478;50.820;4.330;2023-02-01T12:27:41;11.30;99.90
35523;DHT22;61478;50.820;4.330;2023-02-01T12:33:26;11.30;99.90
35523;DHT22;61478;50.820;4.330;2023-02-01T12:38:57;11.40;99.90
35523;DHT22;61478;50.820;4.330;2023-02-01T12:41:52;11.40;99.90
35523;DHT22;61478;50.820;4.330;2023-02-01T12:47:12;11.30;99.90
35523;DHT22;61478;50.820;4.330;2023-02-01T12:50:14;11.20;99.90
35523;DHT22;61478;50.820;4.330;2023-02-01T12:52:49;11.00;99.90
35523;DHT22;61478;50.820;4.330;2023-02-01T12:55:36;11.00;99.90
35523;DHT22;61478;50.820;4.330;2023-02-01T12:58:12;11.00;99.90
35523;DHT22;61478;50.820;4.330;2023-02-01T13:00:49;11.20;99.90
35523;DHT22;61478;50.820;4.330;2023-02-01T13:03:33;11.30;99.90
35523;DHT22;61478;50.820;4.330;2023-02-01T13:08:45;11.30;99.90
35523;DHT22;61478;50.820;4.330;2023-02-01T13:11:15;11.30;99.90
35523;DHT22;61478;50.820;4.330;2023-02-01T13:19:02;11.60;99.90
35523;DHT22;61478;50.820;4.330;2023-02-01T13:21:36;11.50;99.90
35523;DHT22;61478;50.820;4.330;2023-02-01T13:24:06;11.60;99.90
35523;DHT22;61478;50.820;4.330;2023-02-01T13:26:35;11.60;99.90
35523;DHT22;61478;50.820;4.330;2023-02-01T13:29:07;11.40;99.90
35523;DHT22;61478;50.820;4.330;2023-02-01T13:37:41;11.70;99.90
35523;DHT22;61478;50.820;4.330;2023-02-01T13:43:12;11.70;99.90
35523;DHT22;61478;50.820;4.330;2023-02-01T13:45:42;11.50;99.90
35523;DHT22;61478;50.820;4.330;2023-02-01T13:48:26;11.30;99.90
35523;DHT22;61478;50.820;4.330;2023-02-01T13:50:55;11.10;99.90
35523;DHT22;61478;50.820;4.330;2023-02-01T13:53:29;11.10;99.90
35523;DHT22;61478;50.820;4.330;2023-02-01T13:56:01;11.20;99.90
35523;DHT22;61478;50.820;4.330;2023-02-01T13:58:38;11.20;99.90
35523;DHT22;61478;50.820;4.330;2023-02-01T14:03:48;11.50;99.90
35523;DHT22;61478;50.820;4.330;2023-02-01T14:09:19;11.40;99.90
35523;DHT22;61478;50.820;4.330;2023-02-01T14:11:55;11.30;99.90
35523;DHT22;61478;50.820;4.330;2023-02-01T14:19:27;11.30;99.90
35523;DHT22;61478;50.820;4.330;2023-02-01T14:21:57;11.40;99.90
35523;DHT22;61478;50.820;4.330;2023-02-01T14:24:29;11.40;99.90
35523;DHT22;61478;50.820;4.330;2023-02-01T14:27:00;11.40;99.90
35523;DHT22;61478;50.820;4.330;2023-02-01T14:29:38;11.20;99.90
35523;DHT22;61478;50.820;4.330;2023-02-01T14:32:16;11.30;99.90
35523;DHT22;61478;50.820;4.330;2023-02-01T14:34:53;11.40;99.90
35523;DHT22;61478;50.820;4.330;2023-02-01T14:37:25;11.20;99.90
35523;DHT22;61478;50.820;4.330;2023-02-01T14:40:01;11.00;99.90
35523;DHT22;61478;50.820;4.330;2023-02-01T14:42:48;10.90;99.90
35523;DHT22;61478;50.820;4.330;2023-02-01T14:56:11;10.80;99.90
35523;DHT22;61478;50.820;4.330;2023-02-01T14:59:21;10.80;99.90
35523;DHT22;61478;50.820;4.330;2023-02-01T15:01:32;10.80;99.90
35523;DHT22;61478;50.820;4.330;2023-02-01T15:04:12;10.60;99.90
35523;DHT22;61478;50.820;4.330;2023-02-01T15:06:49;10.60;99.90
35523;DHT22;61478;50.820;4.330;2023-02-01T15:09:25;10.60;99.90
35523;DHT22;61478;50.820;4.330;2023-02-01T15:11:59;10.50;99.90
35523;DHT22;61478;50.820;4.330;2023-02-01T15:14:27;10.40;99.90
35523;DHT22;61478;50.820;4.330;2023-02-01T15:16:53;10.30;99.90
35523;DHT22;61478;50.820;4.330;2023-02-01T15:19:21;10.40;99.90
35523;DHT22;61478;50.820;4.330;2023-02-01T15:21:50;10.40;99.90
35523;DHT22;61478;50.820;4.330;2023-02-01T15:24:28;10.30;99.90
35523;DHT22;61478;50.820;4.330;2023-02-01T15:26:55;10.30;99.90
35523;DHT22;61478;50.820;4.330;2023-02-01T15:29:24;10.30;99.90
35523;DHT22;61478;50.820;4.330;2023-02-01T15:31:59;10.30;99.90
35523;DHT22;61478;50.820;4.330;2023-02-01T15:34:48;10.30;99.90
35523;DHT22;61478;50.820;4.330;2023-02-01T15:37:15;10.20;99.90
35523;DHT22;61478;50.820;4.330;2023-02-01T15:42:39;10.10;99.90
35523;DHT22;61478;50.820;4.330;2023-02-01T15:45:21;10.20;99.90
35523;DHT22;61478;50.820;4.330;2023-02-01T15:47:51;10.10;99.90
35523;DHT22;61478;50.820;4.330;2023-02-01T15:50:19;10.10;99.90
35523;DHT22;61478;50.820;4.330;2023-02-01T15:52:47;10.10;99.90
35523;DHT22;61478;50.820;4.330;2023-02-01T15:55:36;10.00;99.90
35523;DHT22;61478;50.820;4.330;2023-02-01T15:58:07;10.00;99.90
35523;DHT22;61478;50.820;4.330;2023-02-01T16:00:43;10.00;99.90
35523;DHT22;61478;50.820;4.330;2023-02-01T16:03:35;9.90;99.90
35523;DHT22;61478;50.820;4.330;2023-02-01T16:06:05;10.00;99.90
35523;DHT22;61478;50.820;4.330;2023-02-01T16:08:31;10.00;99.90
35523;DHT22;61478;50.820;4.330;2023-02-01T16:13:35;9.90;99.90
35523;DHT22;61478;50.820;4.330;2023-02-01T16:16:01;9.90;99.90
35523;DHT22;61478;50.820;4.330;2023-02-01T16:18:27;9.90;99.90
35523;DHT22;61478;50.820;4.330;2023-02-01T16:20:53;9.90;99.90
35523;DHT22;61478;50.820;4.330;2023-02-01T16:23:19;9.80;99.90
35523;DHT22;61478;50.820;4.330;2023-02-01T16:25:46;9.80;99.90
35523;DHT22;61478;50.820;4.330;2023-02-01T16:28:12;9.80;99.90
35523;DHT22;61478;50.820;4.330;2023-02-01T16:30:38;9.80;99.90
35523;DHT22;61478;50.820;4.330;2023-02-01T16:33:05;9.90;99.90
35523;DHT22;61478;50.820;4.330;2023-02-01T16:35:36;9.80;99.90
35523;DHT22;61478;50.820;4.330;2023-02-01T16:38:03;9.80;99.90
35523;DHT22;61478;50.820;4.330;2023-02-01T16:40:34;9.70;99.90
35523;DHT22;61478;50.820;4.330;2023-02-01T16:43:00;9.80;99.90
35523;DHT22;61478;50.820;4.330;2023-02-01T16:45:26;9.80;99.90
35523;DHT22;61478;50.820;4.330;2023-02-01T16:47:54;9.70;99.90
35523;DHT22;61478;50.820;4.330;2023-02-01T16:50:23;9.70;99.90
35523;DHT22;61478;50.820;4.330;2023-02-01T16:52:50;9.80;99.90
35523;DHT22;61478;50.820;4.330;2023-02-01T16:55:18;9.80;99.90
35523;DHT22;61478;50.820;4.330;2023-02-01T16:57:44;9.80;99.90
35523;DHT22;61478;50.820;4.330;2023-02-01T17:00:11;9.80;99.90
35523;DHT22;61478;50.820;4.330;2023-02-01T17:02:37;9.90;99.90
35523;DHT22;61478;50.820;4.330;2023-02-01T17:05:04;9.80;99.90
35523;DHT22;61478;50.820;4.330;2023-02-01T17:07:31;9.70;99.90
35523;DHT22;61478;50.820;4.330;2023-02-01T17:09:56;9.60;99.90
35523;DHT22;61478;50.820;4.330;2023-02-01T17:12:25;9.70;99.90
35523;DHT22;61478;50.820;4.330;2023-02-01T17:14:51;9.70;99.90
35523;DHT22;61478;50.820;4.330;2023-02-01T17:17:18;9.50;99.90
35523;DHT22;61478;50.820;4.330;2023-02-01T17:19:47;9.50;99.90
35523;DHT22;61478;50.820;4.330;2023-02-01T17:22:15;9.50;99.90
35523;DHT22;61478;50.820;4.330;2023-02-01T17:24:41;9.50;99.90
35523;DHT22;61478;50.820;4.330;2023-02-01T17:27:07;9.50;99.90
35523;DHT22;61478;50.820;4.330;2023-02-01T17:29:33;9.40;99.90
35523;DHT22;61478;50.820;4.330;2023-02-01T17:31:58;9.50;99.90
35523;DHT22;61478;50.820;4.330;2023-02-01T17:34:27;9.40;99.90
35523;DHT22;61478;50.820;4.330;2023-02-01T17:36:53;9.40;99.90
35523;DHT22;61478;50.820;4.330;2023-02-01T17:39:19;9.40;99.90
35523;DHT22;61478;50.820;4.330;2023-02-01T17:42:07;9.40;99.90
35523;DHT22;61478;50.820;4.330;2023-02-01T17:44:34;9.40;99.90
35523;DHT22;61478;50.820;4.330;2023-02-01T17:47:00;9.40;99.90
35523;DHT22;61478;50.820;4.330;2023-02-01T17:49:26;9.40;99.90
35523;DHT22;61478;50.820;4.330;2023-02-01T17:51:56;9.40;99.90
35523;DHT22;61478;50.820;4.330;2023-02-01T17:54:22;9.40;99.90
35523;DHT22;61478;50.820;4.330;2023-02-01T17:56:47;9.30;99.90
35523;DHT22;61478;50.820;4.330;2023-02-01T17:59:14;9.30;99.90
35523;DHT22;61478;50.820;4.330;2023-02-01T18:01:40;9.30;99.90
35523;DHT22;61478;50.820;4.330;2023-02-01T18:04:11;9.30;99.90
35523;DHT22;61478;50.820;4.330;2023-02-01T18:06:37;9.40;99.90
35523;DHT22;61478;50.820;4.330;2023-02-01T18:09:02;9.30;99.90
35523;DHT22;61478;50.820;4.330;2023-02-01T18:11:28;9.20;99.90
35523;DHT22;61478;50.820;4.330;2023-02-01T18:13:58;9.20;99.90
35523;DHT22;61478;50.820;4.330;2023-02-01T18:16:26;9.20;99.90
35523;DHT22;61478;50.820;4.330;2023-02-01T18:18:52;9.20;99.90
35523;DHT22;61478;50.820;4.330;2023-02-01T18:21:20;9.20;99.90
35523;DHT22;61478;50.820;4.330;2023-02-01T18:23:47;9.10;99.90